sensor_id;sensor_type;location;lat;lon;timestamp;P1;durP1;ratioP1;P2;durP2;ratioP2
58244;SDS011;44550;43.864;25.986;2022-10-28T00:03:36;23.55;;;15.05;;
58244;SDS011;44550;43.864;25.986;2022-10-28T00:07:37;23.27;;;13.50;;
58244;SDS011;44550;43.864;25.986;2022-10-28T00:11:39;16.77;;;12.45;;
58244;SDS011;44550;43.864;25.986;2022-10-28T00:15:40;16.77;;;10.40;;
58244;SDS011;44550;43.864;25.986;2022-10-28T00:19:40;19.40;;;10.98;;
58244;SDS011;44550;43.864;25.986;2022-10-28T00:23:39;13.90;;;10.10;;
58244;SDS011;44550;43.864;25.986;2022-10-28T00:27:41;8.63;;;7.00;;
58244;SDS011;44550;43.864;25.986;2022-10-28T00:31:42;12.27;;;6.85;;
58244;SDS011;44550;43.864;25.986;2022-10-28T00:35:43;12.68;;;8.10;;
58244;SDS011;44550;43.864;25.986;2022-10-28T00:39:42;12.43;;;7.28;;
58244;SDS011;44550;43.864;25.986;2022-10-28T00:43:46;9.23;;;6.97;;
58244;SDS011;44550;43.864;25.986;2022-10-28T00:47:48;10.73;;;6.88;;
58244;SDS011;44550;43.864;25.986;2022-10-28T00:51:53;9.50;;;7.15;;
58244;SDS011;44550;43.864;25.986;2022-10-28T00:55:58;11.95;;;7.60;;
58244;SDS011;44550;43.864;25.986;2022-10-28T01:00:03;8.05;;;7.13;;
58244;SDS011;44550;43.864;25.986;2022-10-28T01:04:05;11.13;;;6.30;;
58244;SDS011;44550;43.864;25.986;2022-10-28T01:08:05;7.47;;;6.00;;
58244;SDS011;44550;43.864;25.986;2022-10-28T01:12:08;11.00;;;6.43;;
58244;SDS011;44550;43.864;25.986;2022-10-28T01:16:21;9.27;;;6.10;;
58244;SDS011;44550;43.864;25.986;2022-10-28T01:20:40;9.05;;;7.72;;
58244;SDS011;44550;43.864;25.986;2022-10-28T01:25:02;7.95;;;6.95;;
58244;SDS011;44550;43.864;25.986;2022-10-28T01:29:32;9.48;;;7.57;;
58244;SDS011;44550;43.864;25.986;2022-10-28T01:33:46;10.35;;;6.63;;
58244;SDS011;44550;43.864;25.986;2022-10-28T01:37:54;13.68;;;7.57;;
58244;SDS011;44550;43.864;25.986;2022-10-28T01:42:07;12.13;;;8.02;;
58244;SDS011;44550;43.864;25.986;2022-10-28T01:46:18;16.42;;;7.88;;
58244;SDS011;44550;43.864;25.986;2022-10-28T01:50:26;11.43;;;8.00;;
58244;SDS011;44550;43.864;25.986;2022-10-28T01:54:30;11.20;;;7.70;;
58244;SDS011;44550;43.864;25.986;2022-10-28T01:58:32;14.43;;;8.57;;
58244;SDS011;44550;43.864;25.986;2022-10-28T02:02:35;10.43;;;7.40;;
58244;SDS011;44550;43.864;25.986;2022-10-28T02:06:38;19.15;;;9.23;;
58244;SDS011;44550;43.864;25.986;2022-10-28T02:10:41;14.77;;;10.40;;
58244;SDS011;44550;43.864;25.986;2022-10-28T02:14:54;22.10;;;11.85;;
58244;SDS011;44550;43.864;25.986;2022-10-28T02:19:06;16.20;;;11.95;;
58244;SDS011;44550;43.864;25.986;2022-10-28T02:23:19;15.40;;;10.93;;
58244;SDS011;44550;43.864;25.986;2022-10-28T02:27:29;18.65;;;12.32;;
58244;SDS011;44550;43.864;25.986;2022-10-28T02:31:39;18.70;;;12.73;;
58244;SDS011;44550;43.864;25.986;2022-10-28T02:35:47;26.00;;;13.52;;
58244;SDS011;44550;43.864;25.986;2022-10-28T02:39:53;21.75;;;12.75;;
58244;SDS011;44550;43.864;25.986;2022-10-28T02:43:56;17.10;;;12.88;;
58244;SDS011;44550;43.864;25.986;2022-10-28T02:48:05;18.85;;;14.45;;
58244;SDS011;44550;43.864;25.986;2022-10-28T02:52:08;17.55;;;14.07;;
58244;SDS011;44550;43.864;25.986;2022-10-28T02:56:11;24.55;;;14.85;;
58244;SDS011;44550;43.864;25.986;2022-10-28T03:00:14;18.60;;;12.90;;
58244;SDS011;44550;43.864;25.986;2022-10-28T03:04:20;23.55;;;13.25;;
58244;SDS011;44550;43.864;25.986;2022-10-28T03:08:20;20.63;;;12.95;;
58244;SDS011;44550;43.864;25.986;2022-10-28T03:12:23;22.67;;;12.07;;
58244;SDS011;44550;43.864;25.986;2022-10-28T03:16:23;16.65;;;9.80;;
58244;SDS011;44550;43.864;25.986;2022-10-28T03:20:24;17.83;;;10.52;;
58244;SDS011;44550;43.864;25.986;2022-10-28T03:24:24;18.95;;;10.38;;
58244;SDS011;44550;43.864;25.986;2022-10-28T03:28:26;19.95;;;9.55;;
58244;SDS011;44550;43.864;25.986;2022-10-28T03:32:26;14.77;;;9.30;;
58244;SDS011;44550;43.864;25.986;2022-10-28T03:36:26;16.25;;;9.65;;
58244;SDS011;44550;43.864;25.986;2022-10-28T03:40:26;16.67;;;8.02;;
58244;SDS011;44550;43.864;25.986;2022-10-28T03:44:28;15.23;;;9.20;;
58244;SDS011;44550;43.864;25.986;2022-10-28T03:48:28;29.13;;;9.90;;
58244;SDS011;44550;43.864;25.986;2022-10-28T03:52:28;16.42;;;9.93;;
58244;SDS011;44550;43.864;25.986;2022-10-28T03:56:28;23.60;;;10.07;;
58244;SDS011;44550;43.864;25.986;2022-10-28T04:00:30;20.58;;;10.07;;
58244;SDS011;44550;43.864;25.986;2022-10-28T04:04:30;25.25;;;10.35;;
58244;SDS011;44550;43.864;25.986;2022-10-28T04:08:30;27.58;;;10.50;;
58244;SDS011;44550;43.864;25.986;2022-10-28T04:12:32;27.58;;;10.23;;
58244;SDS011;44550;43.864;25.986;2022-10-28T04:16:37;21.05;;;11.50;;
58244;SDS011;44550;43.864;25.986;2022-10-28T04:20:37;28.40;;;10.63;;
58244;SDS011;44550;43.864;25.986;2022-10-28T04:24:44;20.23;;;9.85;;
58244;SDS011;44550;43.864;25.986;2022-10-28T04:28:44;24.90;;;10.82;;
58244;SDS011;44550;43.864;25.986;2022-10-28T04:32:48;20.35;;;11.50;;
58244;SDS011;44550;43.864;25.986;2022-10-28T04:36:48;15.65;;;11.75;;
58244;SDS011;44550;43.864;25.986;2022-10-28T04:40:48;26.17;;;12.18;;
58244;SDS011;44550;43.864;25.986;2022-10-28T04:44:49;55.85;;;50.20;;
58244;SDS011;44550;43.864;25.986;2022-10-28T04:48:51;34.42;;;12.65;;
58244;SDS011;44550;43.864;25.986;2022-10-28T04:52:51;21.20;;;10.93;;
58244;SDS011;44550;43.864;25.986;2022-10-28T04:56:52;23.77;;;11.55;;
58244;SDS011;44550;43.864;25.986;2022-10-28T05:00:53;25.05;;;10.60;;
58244;SDS011;44550;43.864;25.986;2022-10-28T05:04:57;19.60;;;10.65;;
58244;SDS011;44550;43.864;25.986;2022-10-28T05:08:59;20.38;;;10.57;;
58244;SDS011;44550;43.864;25.986;2022-10-28T05:12:59;16.58;;;11.00;;
58244;SDS011;44550;43.864;25.986;2022-10-28T05:16:59;16.05;;;10.88;;
58244;SDS011;44550;43.864;25.986;2022-10-28T05:21:00;21.77;;;12.50;;
58244;SDS011;44550;43.864;25.986;2022-10-28T05:25:00;20.95;;;11.63;;
58244;SDS011;44550;43.864;25.986;2022-10-28T05:29:00;43.25;;;11.93;;
58244;SDS011;44550;43.864;25.986;2022-10-28T05:33:00;19.20;;;10.93;;
58244;SDS011;44550;43.864;25.986;2022-10-28T05:37:02;17.08;;;11.93;;
58244;SDS011;44550;43.864;25.986;2022-10-28T05:41:02;26.17;;;12.73;;
58244;SDS011;44550;43.864;25.986;2022-10-28T05:45:02;26.58;;;12.55;;
58244;SDS011;44550;43.864;25.986;2022-10-28T05:49:01;21.98;;;13.30;;
58244;SDS011;44550;43.864;25.986;2022-10-28T05:53:03;27.50;;;12.55;;
58244;SDS011;44550;43.864;25.986;2022-10-28T05:57:03;18.85;;;13.55;;
58244;SDS011;44550;43.864;25.986;2022-10-28T06:01:05;20.20;;;13.63;;
58244;SDS011;44550;43.864;25.986;2022-10-28T06:05:20;19.92;;;13.93;;
58244;SDS011;44550;43.864;25.986;2022-10-28T06:09:23;18.33;;;11.73;;
58244;SDS011;44550;43.864;25.986;2022-10-28T06:13:26;21.48;;;12.90;;
58244;SDS011;44550;43.864;25.986;2022-10-28T06:17:25;24.88;;;11.93;;
58244;SDS011;44550;43.864;25.986;2022-10-28T06:21:25;15.50;;;11.82;;
58244;SDS011;44550;43.864;25.986;2022-10-28T06:25:27;16.73;;;12.10;;
58244;SDS011;44550;43.864;25.986;2022-10-28T06:29:27;17.20;;;11.98;;
58244;SDS011;44550;43.864;25.986;2022-10-28T06:33:28;18.80;;;12.23;;
58244;SDS011;44550;43.864;25.986;2022-10-28T06:37:28;21.55;;;12.27;;
58244;SDS011;44550;43.864;25.986;2022-10-28T06:41:31;24.08;;;13.07;;
58244;SDS011;44550;43.864;25.986;2022-10-28T06:45:32;24.30;;;12.50;;
58244;SDS011;44550;43.864;25.986;2022-10-28T06:49:33;22.35;;;13.15;;
58244;SDS011;44550;43.864;25.986;2022-10-28T06:53:33;22.20;;;14.63;;
58244;SDS011;44550;43.864;25.986;2022-10-28T06:57:35;28.02;;;14.63;;
58244;SDS011;44550;43.864;25.986;2022-10-28T07:01:34;27.63;;;15.32;;
58244;SDS011;44550;43.864;25.986;2022-10-28T07:05:34;27.10;;;13.98;;
58244;SDS011;44550;43.864;25.986;2022-10-28T07:09:35;30.20;;;13.45;;
58244;SDS011;44550;43.864;25.986;2022-10-28T07:13:37;19.98;;;14.40;;
58244;SDS011;44550;43.864;25.986;2022-10-28T07:17:40;17.90;;;13.75;;
58244;SDS011;44550;43.864;25.986;2022-10-28T07:21:40;29.15;;;14.55;;
58244;SDS011;44550;43.864;25.986;2022-10-28T07:25:40;23.45;;;14.05;;
58244;SDS011;44550;43.864;25.986;2022-10-28T07:29:42;24.52;;;13.27;;
58244;SDS011;44550;43.864;25.986;2022-10-28T07:33:42;30.52;;;13.85;;
58244;SDS011;44550;43.864;25.986;2022-10-28T07:37:42;24.20;;;13.43;;
58244;SDS011;44550;43.864;25.986;2022-10-28T07:41:41;26.15;;;13.57;;
58244;SDS011;44550;43.864;25.986;2022-10-28T07:45:43;19.05;;;11.85;;
58244;SDS011;44550;43.864;25.986;2022-10-28T07:49:43;29.15;;;11.63;;
58244;SDS011;44550;43.864;25.986;2022-10-28T07:53:43;17.25;;;8.98;;
58244;SDS011;44550;43.864;25.986;2022-10-28T07:57:42;25.80;;;9.95;;
58244;SDS011;44550;43.864;25.986;2022-10-28T08:02:26;20.55;;;6.97;;
58244;SDS011;44550;43.864;25.986;2022-10-28T08:06:26;20.88;;;6.07;;
58244;SDS011;44550;43.864;25.986;2022-10-28T08:10:28;8.20;;;4.47;;
58244;SDS011;44550;43.864;25.986;2022-10-28T08:14:28;6.07;;;4.60;;
58244;SDS011;44550;43.864;25.986;2022-10-28T08:18:32;10.57;;;4.75;;
58244;SDS011;44550;43.864;25.986;2022-10-28T08:22:32;7.47;;;4.75;;
58244;SDS011;44550;43.864;25.986;2022-10-28T08:26:32;8.32;;;6.03;;
58244;SDS011;44550;43.864;25.986;2022-10-28T08:30:32;9.52;;;5.95;;
58244;SDS011;44550;43.864;25.986;2022-10-28T08:34:54;12.65;;;6.03;;
58244;SDS011;44550;43.864;25.986;2022-10-28T08:38:54;7.03;;;5.00;;
58244;SDS011;44550;43.864;25.986;2022-10-28T08:42:55;10.70;;;6.80;;
58244;SDS011;44550;43.864;25.986;2022-10-28T08:47:09;9.07;;;6.10;;
58244;SDS011;44550;43.864;25.986;2022-10-28T08:51:26;7.32;;;5.43;;
58244;SDS011;44550;43.864;25.986;2022-10-28T08:55:32;12.18;;;5.47;;
58244;SDS011;44550;43.864;25.986;2022-10-28T08:59:34;10.35;;;7.03;;
58244;SDS011;44550;43.864;25.986;2022-10-28T09:03:37;12.10;;;7.75;;
58244;SDS011;44550;43.864;25.986;2022-10-28T09:07:44;11.35;;;9.15;;
58244;SDS011;44550;43.864;25.986;2022-10-28T09:12:05;23.30;;;10.65;;
58244;SDS011;44550;43.864;25.986;2022-10-28T09:16:16;14.15;;;11.25;;
58244;SDS011;44550;43.864;25.986;2022-10-28T09:20:26;20.23;;;11.18;;
58244;SDS011;44550;43.864;25.986;2022-10-28T09:24:36;15.93;;;11.07;;
58244;SDS011;44550;43.864;25.986;2022-10-28T09:28:45;16.10;;;10.93;;
58244;SDS011;44550;43.864;25.986;2022-10-28T09:32:56;16.33;;;8.55;;
58244;SDS011;44550;43.864;25.986;2022-10-28T09:37:09;13.23;;;8.65;;
58244;SDS011;44550;43.864;25.986;2022-10-28T09:41:17;13.45;;;8.75;;
58244;SDS011;44550;43.864;25.986;2022-10-28T09:45:20;11.55;;;7.03;;
58244;SDS011;44550;43.864;25.986;2022-10-28T09:49:25;10.45;;;7.03;;
58244;SDS011;44550;43.864;25.986;2022-10-28T09:53:30;14.15;;;7.10;;
58244;SDS011;44550;43.864;25.986;2022-10-28T09:57:39;10.27;;;6.57;;
58244;SDS011;44550;43.864;25.986;2022-10-28T10:01:41;11.27;;;6.28;;
58244;SDS011;44550;43.864;25.986;2022-10-28T10:05:45;10.93;;;6.93;;
58244;SDS011;44550;43.864;25.986;2022-10-28T10:09:48;12.02;;;7.43;;
58244;SDS011;44550;43.864;25.986;2022-10-28T10:13:51;10.00;;;6.47;;
58244;SDS011;44550;43.864;25.986;2022-10-28T10:17:59;14.77;;;6.95;;
58244;SDS011;44550;43.864;25.986;2022-10-28T10:22:00;15.90;;;7.50;;
58244;SDS011;44550;43.864;25.986;2022-10-28T10:26:00;44.38;;;9.30;;
58244;SDS011;44550;43.864;25.986;2022-10-28T10:30:13;7.07;;;5.70;;
58244;SDS011;44550;43.864;25.986;2022-10-28T10:34:21;11.77;;;5.35;;
58244;SDS011;44550;43.864;25.986;2022-10-28T10:38:26;7.45;;;4.25;;
58244;SDS011;44550;43.864;25.986;2022-10-28T10:42:28;10.70;;;5.90;;
58244;SDS011;44550;43.864;25.986;2022-10-28T10:46:30;7.85;;;5.03;;
58244;SDS011;44550;43.864;25.986;2022-10-28T10:50:31;11.13;;;4.50;;
58244;SDS011;44550;43.864;25.986;2022-10-28T10:54:33;7.45;;;3.72;;
58244;SDS011;44550;43.864;25.986;2022-10-28T10:58:36;7.68;;;3.80;;
58244;SDS011;44550;43.864;25.986;2022-10-28T11:02:43;23.30;;;4.22;;
58244;SDS011;44550;43.864;25.986;2022-10-28T11:06:52;6.50;;;3.40;;
58244;SDS011;44550;43.864;25.986;2022-10-28T11:11:11;3.50;;;3.17;;
58244;SDS011;44550;43.864;25.986;2022-10-28T11:15:19;10.50;;;3.50;;
58244;SDS011;44550;43.864;25.986;2022-10-28T11:19:27;9.07;;;3.92;;
58244;SDS011;44550;43.864;25.986;2022-10-28T11:23:36;5.82;;;3.85;;
58244;SDS011;44550;43.864;25.986;2022-10-28T11:27:48;6.28;;;4.60;;
58244;SDS011;44550;43.864;25.986;2022-10-28T11:36:35;12.15;;;4.90;;
58244;SDS011;44550;43.864;25.986;2022-10-28T11:40:41;6.38;;;4.47;;
58244;SDS011;44550;43.864;25.986;2022-10-28T11:44:53;5.80;;;3.47;;
58244;SDS011;44550;43.864;25.986;2022-10-28T11:58:22;9.98;;;6.00;;
58244;SDS011;44550;43.864;25.986;2022-10-28T12:02:37;5.05;;;3.90;;
58244;SDS011;44550;43.864;25.986;2022-10-28T12:06:57;8.93;;;5.47;;
58244;SDS011;44550;43.864;25.986;2022-10-28T12:11:11;5.25;;;3.88;;
58244;SDS011;44550;43.864;25.986;2022-10-28T12:15:25;9.23;;;3.75;;
58244;SDS011;44550;43.864;25.986;2022-10-28T12:19:51;5.53;;;3.45;;
58244;SDS011;44550;43.864;25.986;2022-10-28T12:23:56;10.73;;;3.55;;
58244;SDS011;44550;43.864;25.986;2022-10-28T12:28:06;4.63;;;3.22;;
58244;SDS011;44550;43.864;25.986;2022-10-28T12:36:37;7.75;;;3.30;;
58244;SDS011;44550;43.864;25.986;2022-10-28T12:46:08;11.63;;;3.50;;
58244;SDS011;44550;43.864;25.986;2022-10-28T12:50:30;14.52;;;4.57;;
58244;SDS011;44550;43.864;25.986;2022-10-28T12:54:41;6.65;;;3.42;;
58244;SDS011;44550;43.864;25.986;2022-10-28T12:58:59;6.80;;;3.72;;
58244;SDS011;44550;43.864;25.986;2022-10-28T13:03:32;8.65;;;3.75;;
58244;SDS011;44550;43.864;25.986;2022-10-28T13:12:47;4.75;;;3.72;;
58244;SDS011;44550;43.864;25.986;2022-10-28T13:17:17;3.90;;;3.17;;
58244;SDS011;44550;43.864;25.986;2022-10-28T13:26:28;6.80;;;4.40;;
58244;SDS011;44550;43.864;25.986;2022-10-28T13:30:37;8.18;;;3.65;;
58244;SDS011;44550;43.864;25.986;2022-10-28T13:35:37;6.63;;;3.80;;
58244;SDS011;44550;43.864;25.986;2022-10-28T13:39:54;4.85;;;3.70;;
58244;SDS011;44550;43.864;25.986;2022-10-28T13:48:58;10.25;;;6.57;;
58244;SDS011;44550;43.864;25.986;2022-10-28T13:53:36;42.17;;;34.35;;
58244;SDS011;44550;43.864;25.986;2022-10-28T13:58:23;21.20;;;13.98;;
58244;SDS011;44550;43.864;25.986;2022-10-28T14:02:54;19.13;;;5.38;;
58244;SDS011;44550;43.864;25.986;2022-10-28T14:07:55;11.13;;;5.15;;
58244;SDS011;44550;43.864;25.986;2022-10-28T14:12:31;28.27;;;20.08;;
58244;SDS011;44550;43.864;25.986;2022-10-28T14:16:52;16.33;;;13.30;;
58244;SDS011;44550;43.864;25.986;2022-10-28T14:20:56;18.08;;;11.50;;
58244;SDS011;44550;43.864;25.986;2022-10-28T14:25:02;9.50;;;4.70;;
58244;SDS011;44550;43.864;25.986;2022-10-28T14:29:41;14.88;;;4.93;;
58244;SDS011;44550;43.864;25.986;2022-10-28T14:48:15;20.75;;;6.60;;
58244;SDS011;44550;43.864;25.986;2022-10-28T14:52:37;26.40;;;6.70;;
58244;SDS011;44550;43.864;25.986;2022-10-28T14:57:10;19.15;;;5.03;;
58244;SDS011;44550;43.864;25.986;2022-10-28T15:01:35;11.70;;;5.68;;
58244;SDS011;44550;43.864;25.986;2022-10-28T15:06:29;15.73;;;6.93;;
58244;SDS011;44550;43.864;25.986;2022-10-28T15:10:35;30.00;;;8.13;;
58244;SDS011;44550;43.864;25.986;2022-10-28T15:14:45;10.20;;;6.05;;
58244;SDS011;44550;43.864;25.986;2022-10-28T15:18:56;17.50;;;7.88;;
58244;SDS011;44550;43.864;25.986;2022-10-28T15:23:09;22.52;;;8.18;;
58244;SDS011;44550;43.864;25.986;2022-10-28T15:27:25;53.90;;;10.85;;
58244;SDS011;44550;43.864;25.986;2022-10-28T15:31:28;32.83;;;10.18;;
58244;SDS011;44550;43.864;25.986;2022-10-28T15:35:38;23.20;;;8.77;;
58244;SDS011;44550;43.864;25.986;2022-10-28T15:39:39;23.33;;;8.50;;
58244;SDS011;44550;43.864;25.986;2022-10-28T15:43:41;20.90;;;8.45;;
58244;SDS011;44550;43.864;25.986;2022-10-28T15:47:52;20.27;;;7.55;;
58244;SDS011;44550;43.864;25.986;2022-10-28T15:56:33;33.30;;;10.27;;
58244;SDS011;44550;43.864;25.986;2022-10-28T16:00:53;31.70;;;8.63;;
58244;SDS011;44550;43.864;25.986;2022-10-28T16:04:55;28.88;;;8.05;;
58244;SDS011;44550;43.864;25.986;2022-10-28T16:09:05;32.40;;;10.30;;
58244;SDS011;44550;43.864;25.986;2022-10-28T16:13:17;21.95;;;8.95;;
58244;SDS011;44550;43.864;25.986;2022-10-28T16:17:21;37.67;;;9.82;;
58244;SDS011;44550;43.864;25.986;2022-10-28T16:21:33;33.73;;;10.67;;
58244;SDS011;44550;43.864;25.986;2022-10-28T16:25:50;28.67;;;9.60;;
58244;SDS011;44550;43.864;25.986;2022-10-28T16:29:51;29.33;;;9.68;;
58244;SDS011;44550;43.864;25.986;2022-10-28T16:33:54;27.15;;;9.85;;
58244;SDS011;44550;43.864;25.986;2022-10-28T16:37:56;37.22;;;10.68;;
58244;SDS011;44550;43.864;25.986;2022-10-28T16:41:59;41.25;;;11.88;;
58244;SDS011;44550;43.864;25.986;2022-10-28T16:45:59;45.47;;;16.50;;
58244;SDS011;44550;43.864;25.986;2022-10-28T16:50:06;44.08;;;14.57;;
58244;SDS011;44550;43.864;25.986;2022-10-28T16:54:44;36.40;;;13.90;;
58244;SDS011;44550;43.864;25.986;2022-10-28T16:58:49;43.75;;;12.98;;
58244;SDS011;44550;43.864;25.986;2022-10-28T17:02:52;41.55;;;12.15;;
58244;SDS011;44550;43.864;25.986;2022-10-28T17:06:53;38.75;;;15.02;;
58244;SDS011;44550;43.864;25.986;2022-10-28T17:10:57;35.03;;;12.68;;
58244;SDS011;44550;43.864;25.986;2022-10-28T17:14:59;36.00;;;14.40;;
58244;SDS011;44550;43.864;25.986;2022-10-28T17:18:59;44.05;;;15.20;;
58244;SDS011;44550;43.864;25.986;2022-10-28T17:23:00;31.75;;;16.13;;
58244;SDS011;44550;43.864;25.986;2022-10-28T17:27:01;43.78;;;18.42;;
58244;SDS011;44550;43.864;25.986;2022-10-28T17:31:06;31.88;;;16.65;;
58244;SDS011;44550;43.864;25.986;2022-10-28T17:35:09;40.47;;;17.70;;
58244;SDS011;44550;43.864;25.986;2022-10-28T17:39:10;37.17;;;16.23;;
58244;SDS011;44550;43.864;25.986;2022-10-28T17:43:17;47.38;;;27.50;;
58244;SDS011;44550;43.864;25.986;2022-10-28T17:47:20;37.92;;;15.27;;
58244;SDS011;44550;43.864;25.986;2022-10-28T17:51:21;47.95;;;20.92;;
58244;SDS011;44550;43.864;25.986;2022-10-28T17:55:20;63.17;;;25.23;;
58244;SDS011;44550;43.864;25.986;2022-10-28T17:59:20;47.88;;;24.00;;
58244;SDS011;44550;43.864;25.986;2022-10-28T18:03:23;64.43;;;29.70;;
58244;SDS011;44550;43.864;25.986;2022-10-28T18:07:23;76.68;;;32.72;;
58244;SDS011;44550;43.864;25.986;2022-10-28T18:11:23;70.78;;;32.72;;
58244;SDS011;44550;43.864;25.986;2022-10-28T18:15:24;54.83;;;31.58;;
58244;SDS011;44550;43.864;25.986;2022-10-28T18:19:26;56.58;;;29.13;;
58244;SDS011;44550;43.864;25.986;2022-10-28T18:23:26;47.42;;;23.55;;
58244;SDS011;44550;43.864;25.986;2022-10-28T18:27:27;40.50;;;25.98;;
58244;SDS011;44550;43.864;25.986;2022-10-28T18:31:29;40.42;;;19.80;;
58244;SDS011;44550;43.864;25.986;2022-10-28T18:35:33;45.55;;;18.02;;
58244;SDS011;44550;43.864;25.986;2022-10-28T18:39:33;39.13;;;15.95;;
58244;SDS011;44550;43.864;25.986;2022-10-28T18:43:34;38.08;;;15.70;;
58244;SDS011;44550;43.864;25.986;2022-10-28T18:47:35;29.83;;;12.60;;
58244;SDS011;44550;43.864;25.986;2022-10-28T18:51:49;28.27;;;13.20;;
58244;SDS011;44550;43.864;25.986;2022-10-28T18:55:52;28.33;;;12.88;;
58244;SDS011;44550;43.864;25.986;2022-10-28T19:00:04;22.67;;;13.68;;
58244;SDS011;44550;43.864;25.986;2022-10-28T19:04:14;31.92;;;13.27;;
58244;SDS011;44550;43.864;25.986;2022-10-28T19:08:17;37.65;;;14.60;;
58244;SDS011;44550;43.864;25.986;2022-10-28T19:12:18;28.10;;;14.15;;
58244;SDS011;44550;43.864;25.986;2022-10-28T19:16:27;28.98;;;16.23;;
58244;SDS011;44550;43.864;25.986;2022-10-28T19:20:51;28.38;;;14.77;;
58244;SDS011;44550;43.864;25.986;2022-10-28T19:24:55;30.58;;;15.95;;
58244;SDS011;44550;43.864;25.986;2022-10-28T19:28:56;34.65;;;19.30;;
58244;SDS011;44550;43.864;25.986;2022-10-28T19:32:59;50.55;;;26.95;;
58244;SDS011;44550;43.864;25.986;2022-10-28T19:36:59;44.45;;;25.02;;
58244;SDS011;44550;43.864;25.986;2022-10-28T19:41:05;36.55;;;21.00;;
58244;SDS011;44550;43.864;25.986;2022-10-28T19:45:08;37.72;;;21.23;;
58244;SDS011;44550;43.864;25.986;2022-10-28T19:49:09;37.58;;;20.15;;
58244;SDS011;44550;43.864;25.986;2022-10-28T19:53:16;36.97;;;20.85;;
58244;SDS011;44550;43.864;25.986;2022-10-28T19:57:19;37.78;;;20.25;;
58244;SDS011;44550;43.864;25.986;2022-10-28T20:01:21;33.67;;;20.05;;
58244;SDS011;44550;43.864;25.986;2022-10-28T20:05:24;37.10;;;21.52;;
58244;SDS011;44550;43.864;25.986;2022-10-28T20:09:25;36.90;;;20.60;;
58244;SDS011;44550;43.864;25.986;2022-10-28T20:13:31;30.33;;;17.80;;
58244;SDS011;44550;43.864;25.986;2022-10-28T20:17:33;33.47;;;20.52;;
58244;SDS011;44550;43.864;25.986;2022-10-28T20:21:33;33.38;;;19.55;;
58244;SDS011;44550;43.864;25.986;2022-10-28T20:25:35;33.38;;;21.00;;
58244;SDS011;44550;43.864;25.986;2022-10-28T20:29:38;30.38;;;22.13;;
58244;SDS011;44550;43.864;25.986;2022-10-28T20:33:40;33.78;;;19.27;;
58244;SDS011;44550;43.864;25.986;2022-10-28T20:37:45;29.38;;;19.10;;
58244;SDS011;44550;43.864;25.986;2022-10-28T20:41:46;30.33;;;22.40;;
58244;SDS011;44550;43.864;25.986;2022-10-28T20:45:56;31.30;;;19.73;;
58244;SDS011;44550;43.864;25.986;2022-10-28T20:50:01;29.38;;;20.33;;
58244;SDS011;44550;43.864;25.986;2022-10-28T20:54:03;31.30;;;21.85;;
58244;SDS011;44550;43.864;25.986;2022-10-28T20:58:10;42.33;;;24.30;;
58244;SDS011;44550;43.864;25.986;2022-10-28T21:02:38;56.08;;;36.03;;
58244;SDS011;44550;43.864;25.986;2022-10-28T21:06:39;46.72;;;34.25;;
58244;SDS011;44550;43.864;25.986;2022-10-28T21:10:43;41.72;;;24.80;;
58244;SDS011;44550;43.864;25.986;2022-10-28T21:14:47;40.72;;;25.80;;
58244;SDS011;44550;43.864;25.986;2022-10-28T21:18:54;32.63;;;23.95;;
58244;SDS011;44550;43.864;25.986;2022-10-28T21:22:57;35.35;;;22.60;;
58244;SDS011;44550;43.864;25.986;2022-10-28T21:26:58;36.17;;;23.70;;
58244;SDS011;44550;43.864;25.986;2022-10-28T21:30:58;28.33;;;23.48;;
58244;SDS011;44550;43.864;25.986;2022-10-28T21:35:01;32.90;;;22.52;;
58244;SDS011;44550;43.864;25.986;2022-10-28T21:39:01;28.60;;;21.40;;
58244;SDS011;44550;43.864;25.986;2022-10-28T21:43:01;39.13;;;25.38;;
58244;SDS011;44550;43.864;25.986;2022-10-28T21:47:02;36.10;;;24.10;;
58244;SDS011;44550;43.864;25.986;2022-10-28T21:51:06;33.70;;;24.33;;
58244;SDS011;44550;43.864;25.986;2022-10-28T21:55:10;31.95;;;22.63;;
58244;SDS011;44550;43.864;25.986;2022-10-28T21:59:17;30.02;;;22.15;;
58244;SDS011;44550;43.864;25.986;2022-10-28T22:03:17;39.70;;;22.58;;
58244;SDS011;44550;43.864;25.986;2022-10-28T22:07:19;31.80;;;18.90;;
58244;SDS011;44550;43.864;25.986;2022-10-28T22:11:20;32.10;;;18.90;;
58244;SDS011;44550;43.864;25.986;2022-10-28T22:15:20;28.38;;;18.20;;
58244;SDS011;44550;43.864;25.986;2022-10-28T22:19:21;25.83;;;15.00;;
58244;SDS011;44550;43.864;25.986;2022-10-28T22:23:23;26.65;;;14.50;;
58244;SDS011;44550;43.864;25.986;2022-10-28T22:27:24;24.48;;;13.68;;
58244;SDS011;44550;43.864;25.986;2022-10-28T22:31:25;29.63;;;13.68;;
58244;SDS011;44550;43.864;25.986;2022-10-28T22:35:27;23.85;;;12.90;;
58244;SDS011;44550;43.864;25.986;2022-10-28T22:39:30;19.08;;;13.02;;
58244;SDS011;44550;43.864;25.986;2022-10-28T22:43:30;23.67;;;12.43;;
58244;SDS011;44550;43.864;25.986;2022-10-28T22:47:31;21.23;;;12.35;;
58244;SDS011;44550;43.864;25.986;2022-10-28T22:51:31;21.55;;;12.15;;
58244;SDS011;44550;43.864;25.986;2022-10-28T22:55:34;21.45;;;13.07;;
58244;SDS011;44550;43.864;25.986;2022-10-28T22:59:34;23.55;;;12.63;;
58244;SDS011;44550;43.864;25.986;2022-10-28T23:03:35;18.98;;;11.35;;
58244;SDS011;44550;43.864;25.986;2022-10-28T23:07:36;24.73;;;11.38;;
58244;SDS011;44550;43.864;25.986;2022-10-28T23:11:39;29.08;;;12.13;;
58244;SDS011;44550;43.864;25.986;2022-10-28T23:15:39;18.75;;;11.23;;
58244;SDS011;44550;43.864;25.986;2022-10-28T23:19:41;24.83;;;11.82;;
58244;SDS011;44550;43.864;25.986;2022-10-28T23:23:42;22.67;;;13.38;;
58244;SDS011;44550;43.864;25.986;2022-10-28T23:27:52;17.23;;;11.27;;
58244;SDS011;44550;43.864;25.986;2022-10-28T23:31:53;17.92;;;10.27;;
58244;SDS011;44550;43.864;25.986;2022-10-28T23:35:53;16.98;;;9.63;;
58244;SDS011;44550;43.864;25.986;2022-10-28T23:39:57;18.92;;;10.90;;
58244;SDS011;44550;43.864;25.986;2022-10-28T23:44:00;19.10;;;10.65;;
58244;SDS011;44550;43.864;25.986;2022-10-28T23:48:00;20.23;;;11.10;;
58244;SDS011;44550;43.864;25.986;2022-10-28T23:52:00;18.27;;;11.48;;
58244;SDS011;44550;43.864;25.986;2022-10-28T23:56:01;12.68;;;10.05;;
